Time;durP1;ratioP1;P1;durP2;ratioP2;P2;SDS_P1;SDS_P2;PMS_P1;PMS_P2;Temp;Humidity;BMP_temperature;BMP_pressure;BME280_temperature;BME280_humidity;BME280_pressure;Samples;Min_cycle;Max_cycle;Signal;HPM_P1;HPM_P2
2023/06/14 00:00:11;;;;;;;7.60;6.80;;;;;;;13.13;82.89;99687.48;105145;1256;60478;-69
2023/06/14 00:02:39;;;;;;;10.10;7.50;;;;;;;13.07;83.01;99684.80;105424;1254;60453;-72
2023/06/14 00:05:08;;;;;;;11.10;6.80;;;;;;;13.01;83.28;99684.48;105331;1254;75597;-70
2023/06/14 00:07:36;;;;;;;12.80;7.90;;;;;;;12.95;83.48;99681.90;105340;1254;72092;-69
2023/06/14 00:10:05;;;;;;;7.50;5.70;;;;;;;12.92;83.57;99682.61;105431;1257;72689;-69
2023/06/14 00:12:32;;;;;;;9.30;6.10;;;;;;;13.00;83.50;99682.41;105267;1256;61881;-68
2023/06/14 00:15:01;;;;;;;9.70;6.80;;;;;;;13.05;83.25;99679.48;105043;1254;60448;-67
2023/06/14 00:17:31;;;;;;;10.60;7.20;;;;;;;13.01;83.47;99681.20;105368;1253;73844;-69
2023/06/14 00:19:59;;;;;;;10.70;7.20;;;;;;;12.94;83.66;99682.42;105284;1254;72504;-68
2023/06/14 00:22:28;;;;;;;11.90;7.90;;;;;;;12.90;83.88;99685.40;105145;1254;71367;-68
2023/06/14 00:24:56;;;;;;;9.70;6.00;;;;;;;12.86;84.01;99687.31;105179;1254;61704;-70
2023/06/14 00:27:24;;;;;;;8.10;6.10;;;;;;;12.89;83.95;99684.98;105283;1254;60486;-71
2023/06/14 00:29:52;;;;;;;8.60;6.90;;;;;;;12.92;84.02;99688.84;105406;1253;73021;-69
2023/06/14 00:32:24;;;;;;;7.40;6.70;;;;;;;12.89;84.11;99687.64;105194;1254;69046;-71
2023/06/14 00:34:55;;;;;;;7.80;7.00;;;;;;;12.83;84.34;99688.39;105199;1263;72820;-68
2023/06/14 00:37:22;;;;;;;10.00;6.40;;;;;;;12.77;84.67;99680.14;105284;1259;60859;-69
2023/06/14 00:39:50;;;;;;;8.20;6.20;;;;;;;12.75;84.71;99678.30;105343;1254;60624;-67
2023/06/14 00:42:26;;;;;;;7.20;5.70;;;;;;;12.84;84.60;99677.40;105414;1259;74008;-71
2023/06/14 00:44:54;;;;;;;7.90;5.90;;;;;;;12.92;84.52;99678.91;105196;1260;70150;-66
2023/06/14 00:47:22;;;;;;;8.30;6.50;;;;;;;12.92;84.54;99673.20;105537;1259;72844;-68
2023/06/14 00:49:53;;;;;;;8.30;6.80;;;;;;;12.90;84.83;99674.00;105240;1261;60524;-67
2023/06/14 00:52:20;;;;;;;8.00;7.30;;;;;;;12.87;84.86;99675.14;105329;1254;61115;-68
2023/06/14 00:54:48;;;;;;;7.60;6.10;;;;;;;12.84;85.05;99679.70;105275;1260;74357;-70
2023/06/14 00:57:15;;;;;;;8.90;6.10;;;;;;;12.91;84.93;99683.86;105229;1260;71477;-70
2023/06/14 00:59:45;;;;;;;7.70;6.30;;;;;;;12.97;84.94;99687.08;105158;1261;71445;-69
2023/06/14 01:02:14;;;;;;;8.70;7.00;;;;;;;12.96;85.14;99686.46;105504;1254;60473;-70
2023/06/14 01:04:47;;;;;;;9.20;6.30;;;;;;;12.94;85.32;99690.98;105339;1254;60475;-68
2023/06/14 01:07:23;;;;;;;7.80;7.00;;;;;;;12.91;85.45;99686.02;105323;1254;72766;-69
2023/06/14 01:10:15;;;;;;;8.70;7.40;;;;;;;12.89;85.43;99686.41;105236;1259;69741;-70
2023/06/14 01:12:53;;;;;;;8.90;7.10;;;;;;;12.97;85.29;99692.01;105320;1257;73009;-69
2023/06/14 01:15:21;;;;;;;8.80;6.60;;;;;;;12.99;85.18;99693.23;105306;1254;60889;-67
2023/06/14 01:17:51;;;;;;;11.10;6.90;;;;;;;12.93;85.48;99687.13;105208;1254;60540;-69
2023/06/14 01:20:20;;;;;;;7.00;6.30;;;;;;;12.88;85.67;99685.13;105335;1253;72626;-69
2023/06/14 01:22:51;;;;;;;8.10;6.80;;;;;;;12.83;85.84;99686.13;105349;1259;70697;-68
2023/06/14 01:25:20;;;;;;;6.90;6.20;;;;;;;12.87;85.90;99684.88;105494;1259;71206;-72
2023/06/14 01:27:53;;;;;;;8.80;6.60;;;;;;;12.90;85.93;99686.67;105255;1262;60567;-70
2023/06/14 01:30:21;;;;;;;9.20;7.20;;;;;;;12.85;86.26;99685.41;105393;1254;60567;-69
2023/06/14 01:32:48;;;;;;;7.80;6.30;;;;;;;12.82;86.46;99683.95;105566;1254;73781;-69
2023/06/14 01:35:16;;;;;;;10.40;7.40;;;;;;;12.78;86.61;99675.77;105300;1261;71526;-71
2023/06/14 01:37:46;;;;;;;7.10;6.20;;;;;;;12.85;86.62;99674.96;105255;1256;72576;-72
2023/06/14 01:40:15;;;;;;;8.40;6.90;;;;;;;12.89;86.40;99675.02;105746;1254;60451;-71
2023/06/14 01:42:43;;;;;;;12.80;6.70;;;;;;;12.86;86.65;99678.98;105438;1254;60559;-70
2023/06/14 01:45:10;;;;;;;8.60;7.00;;;;;;;12.79;86.87;99675.30;105218;1254;72828;-71
2023/06/14 01:47:38;;;;;;;7.00;6.30;;;;;;;12.74;87.13;99673.26;105218;1262;68819;-71
2023/06/14 01:50:06;;;;;;;7.00;6.30;;;;;;;12.70;87.28;99671.80;105257;1259;71526;-70
2023/06/14 01:52:34;;;;;;;10.60;6.90;;;;;;;12.75;87.32;99672.08;105507;1257;62033;-68
2023/06/14 01:55:06;;;;;;;7.50;6.70;;;;;;;12.78;87.25;99671.17;105498;1254;60536;-68
2023/06/14 01:57:33;;;;;;;9.60;7.00;;;;;;;12.77;87.59;99672.39;105410;1254;72778;-69
2023/06/14 02:00:01;;;;;;;9.00;7.80;;;;;;;12.75;87.78;99675.80;105417;1253;70602;-69
2023/06/14 02:02:39;;;;;;;7.80;6.80;;;;;;;12.71;87.81;99678.19;105338;1254;71478;-69
2023/06/14 02:05:07;;;;;;;9.80;6.70;;;;;;;12.69;87.95;99676.01;105291;1254;61721;-69
2023/06/14 02:07:35;;;;;;;7.60;6.50;;;;;;;12.76;87.76;99677.46;105243;1259;60581;-66
2023/06/14 02:10:07;;;;;;;9.70;6.60;;;;;;;12.82;87.59;99674.66;105347;1254;73802;-66
2023/06/14 02:12:34;;;;;;;8.80;7.30;;;;;;;12.77;87.68;99671.45;105174;1254;70484;-67
2023/06/14 02:15:03;;;;;;;12.00;7.90;;;;;;;12.72;87.90;99674.91;105244;1254;71389;-69
2023/06/14 02:17:31;;;;;;;8.00;6.90;;;;;;;12.67;88.08;99669.70;105360;1254;61927;-67
2023/06/14 02:19:58;;;;;;;6.60;5.90;;;;;;;12.70;88.05;99670.56;105152;1254;60569;-67
2023/06/14 02:22:26;;;;;;;8.50;7.40;;;;;;;12.71;88.14;99671.98;105219;1254;72648;-70
2023/06/14 02:24:53;;;;;;;10.00;7.40;;;;;;;12.68;88.25;99671.99;105308;1259;69208;-68
2023/06/14 02:27:28;;;;;;;10.80;7.50;;;;;;;12.65;88.57;99665.99;105233;1257;72677;-69
2023/06/14 02:29:56;;;;;;;10.20;6.80;;;;;;;12.65;88.74;99659.05;105348;1259;60443;-70
2023/06/14 02:32:26;;;;;;;9.70;6.70;;;;;;;12.75;88.71;99663.18;105263;1255;60537;-71
2023/06/14 02:34:54;;;;;;;8.30;7.00;;;;;;;12.83;88.39;99665.58;105202;1254;76286;-71
2023/06/14 02:37:22;;;;;;;8.30;7.50;;;;;;;12.85;88.59;99674.27;105296;1262;69159;-69
2023/06/14 02:39:49;;;;;;;13.00;7.00;;;;;;;12.91;88.93;99668.79;105394;1256;72989;-70
2023/06/14 02:42:17;;;;;;;8.60;6.20;;;;;;;12.98;88.51;99669.71;105502;1254;61148;-70
2023/06/14 02:44:46;;;;;;;7.60;6.10;;;;;;;13.11;88.01;99670.05;105225;1261;60544;-69
2023/06/14 02:47:14;;;;;;;11.50;6.50;;;;;;;13.21;87.48;99668.31;105241;1254;73909;-70
2023/06/14 02:49:46;;;;;;;10.80;6.30;;;;;;;13.21;87.27;99672.98;105383;1254;70423;-69
2023/06/14 02:52:15;;;;;;;12.10;7.20;;;;;;;13.18;87.35;99676.83;105375;1262;71469;-69
2023/06/14 02:54:42;;;;;;;8.30;6.50;;;;;;;13.17;87.26;99680.30;105266;1254;60451;-69
2023/06/14 02:57:10;;;;;;;7.60;6.40;;;;;;;13.29;87.16;99677.50;105426;1254;60318;-68
2023/06/14 02:59:38;;;;;;;8.80;7.30;;;;;;;13.44;87.07;99684.11;105366;1254;72667;-70
2023/06/14 03:02:06;;;;;;;10.40;6.60;;;;;;;13.49;86.77;99685.05;105458;1257;68706;-69
2023/06/14 03:04:36;;;;;;;13.90;7.90;;;;;;;13.50;86.49;99685.48;105355;1257;72899;-69
2023/06/14 03:07:10;;;;;;;10.20;7.20;;;;;;;13.48;86.28;99685.33;105459;1259;60467;-69
2023/06/14 03:09:39;;;;;;;8.00;6.00;;;;;;;13.48;86.28;99689.77;105359;1260;60465;-68
2023/06/14 03:12:09;;;;;;;7.40;5.50;;;;;;;13.58;86.19;99694.05;105349;1254;76348;-71
2023/06/14 03:14:38;;;;;;;8.30;6.30;;;;;;;13.69;86.24;99700.74;105500;1261;68979;-70
2023/06/14 03:17:08;;;;;;;9.60;6.30;;;;;;;13.75;86.15;99697.44;105448;1256;72588;-70
2023/06/14 03:19:37;;;;;;;9.20;6.20;;;;;;;13.78;85.96;99689.64;105434;1254;60573;-69
2023/06/14 03:22:05;;;;;;;7.40;6.20;;;;;;;13.79;85.67;99690.66;105447;1254;60408;-70
2023/06/14 03:24:36;;;;;;;7.60;5.60;;;;;;;13.88;85.57;99688.05;105130;1254;72671;-68
2023/06/14 03:27:09;;;;;;;6.80;6.10;;;;;;;14.01;85.28;99690.53;105444;1258;68689;-69
2023/06/14 03:29:40;;;;;;;8.40;5.80;;;;;;;14.05;85.22;99691.11;105297;1256;73055;-68
2023/06/14 03:32:08;;;;;;;8.70;6.90;;;;;;;14.06;85.31;99698.15;105270;1257;60543;-69
2023/06/14 03:34:45;;;;;;;7.00;6.30;;;;;;;14.07;85.11;99698.40;105276;1259;60563;-68
2023/06/14 03:37:17;;;;;;;7.80;5.90;;;;;;;14.09;85.13;99696.33;105393;1256;74094;-70
2023/06/14 03:39:46;;;;;;;7.30;6.10;;;;;;;14.22;84.90;99699.02;105327;1260;69207;-69
2023/06/14 03:42:20;;;;;;;8.40;6.10;;;;;;;14.33;84.75;99701.10;105297;1257;72600;-67
2023/06/14 03:48:11;;;;;;;9.00;6.70;;;;;;;14.47;84.81;99695.81;102205;1292;602045;-69
2023/06/14 03:50:38;;;;;;;9.40;6.50;;;;;;;14.57;84.66;99694.37;104681;1266;61779;-70
2023/06/14 03:53:06;;;;;;;9.40;6.00;;;;;;;14.72;84.01;99696.21;104777;1266;60303;-70
2023/06/14 03:55:35;;;;;;;7.70;6.60;;;;;;;14.84;83.78;99698.25;104844;1266;70864;-68
2023/06/14 03:58:05;;;;;;;9.30;7.10;;;;;;;14.86;83.68;99695.31;104793;1266;70893;-66
2023/06/14 04:00:32;;;;;;;7.60;6.70;;;;;;;14.89;83.61;99692.41;104388;1264;174092;-67
2023/06/14 04:02:58;;;;;;;8.60;6.40;;;;;;;14.96;83.74;99694.08;104974;1264;60295;-68
2023/06/14 04:05:26;;;;;;;8.50;6.60;;;;;;;15.03;83.40;99689.42;104658;1266;60479;-67
2023/06/14 04:07:56;;;;;;;9.70;6.20;;;;;;;15.19;83.28;99691.81;104875;1269;72114;-70
2023/06/14 04:10:23;;;;;;;10.20;6.70;;;;;;;15.34;82.96;99696.70;104999;1263;71008;-73
2023/06/14 04:12:51;;;;;;;9.10;6.90;;;;;;;15.41;82.68;99693.11;104803;1264;72881;-71
2023/06/14 04:15:18;;;;;;;9.20;6.80;;;;;;;15.48;82.68;99694.42;105070;1259;59997;-70
2023/06/14 04:17:50;;;;;;;9.60;6.20;;;;;;;15.58;82.55;99693.30;105118;1255;60509;-70
2023/06/14 04:20:17;;;;;;;9.50;6.20;;;;;;;15.66;82.01;99692.05;105369;1257;72830;-70
2023/06/14 04:22:45;;;;;;;7.00;5.60;;;;;;;15.82;81.71;99691.50;105367;1257;70839;-70
2023/06/14 04:25:11;;;;;;;9.40;6.00;;;;;;;15.94;81.35;99691.88;104978;1263;72765;-69
2023/06/14 04:27:41;;;;;;;8.30;6.20;;;;;;;15.99;81.08;99691.77;105123;1259;60984;-70
2023/06/14 04:30:09;;;;;;;7.20;6.20;;;;;;;16.04;80.79;99692.71;105280;1256;60039;-70
2023/06/14 04:32:42;;;;;;;8.30;6.80;;;;;;;16.10;80.65;99686.91;105225;1263;72098;-69
2023/06/14 04:35:11;;;;;;;8.50;5.80;;;;;;;16.24;80.48;99691.15;105226;1257;70122;-72
2023/06/14 04:37:41;;;;;;;11.40;6.40;;;;;;;16.47;80.00;99689.09;105222;1257;72992;-69
2023/06/14 04:40:09;;;;;;;11.00;6.50;;;;;;;16.67;79.74;99683.39;105331;1256;60263;-69
2023/06/14 04:42:40;;;;;;;9.30;5.60;;;;;;;16.85;79.11;99682.11;105434;1257;60066;-69
2023/06/14 04:45:09;;;;;;;10.60;6.30;;;;;;;17.00;78.43;99682.73;105601;1258;73075;-70
2023/06/14 04:47:38;;;;;;;9.20;6.00;;;;;;;17.13;77.55;99678.59;105389;1256;71558;-67
2023/06/14 04:50:06;;;;;;;7.80;6.00;;;;;;;17.25;76.87;99681.94;105327;1260;71328;-69
2023/06/14 04:52:35;;;;;;;8.60;5.70;;;;;;;17.37;76.43;99677.45;105390;1254;61016;-69
2023/06/14 04:55:05;;;;;;;8.50;5.60;;;;;;;17.56;75.62;99675.62;105542;1254;60260;-72
2023/06/14 04:57:32;;;;;;;6.40;5.80;;;;;;;17.71;74.97;99676.65;105559;1254;72921;-69
2023/06/14 05:00:00;;;;;;;7.40;5.60;;;;;;;17.77;74.57;99674.22;105202;1256;70890;-70
2023/06/14 05:02:30;;;;;;;10.90;5.90;;;;;;;17.81;74.22;99673.58;105359;1260;71353;-71
2023/06/14 05:04:57;;;;;;;8.50;6.00;;;;;;;17.89;73.98;99674.92;105217;1256;60418;-69
2023/06/14 05:07:24;;;;;;;11.50;6.40;;;;;;;17.96;73.72;99670.60;105299;1261;60184;-69
2023/06/14 05:09:51;;;;;;;6.80;6.00;;;;;;;18.04;73.36;99669.67;105257;1262;73410;-69
2023/06/14 05:12:18;;;;;;;6.90;6.10;;;;;;;18.12;73.12;99668.98;105296;1260;71997;-71
2023/06/14 05:14:45;;;;;;;8.30;5.70;;;;;;;18.18;72.76;99667.11;105225;1260;72171;-69
2023/06/14 05:17:12;;;;;;;9.90;5.00;;;;;;;18.26;72.07;99662.75;105588;1254;62026;-70
2023/06/14 05:19:39;;;;;;;9.10;4.90;;;;;;;18.41;71.33;99664.27;105468;1259;60253;-71
2023/06/14 05:22:06;;;;;;;10.90;5.90;;;;;;;18.54;70.64;99661.05;105511;1261;73424;-72
2023/06/14 05:24:34;;;;;;;8.90;5.80;;;;;;;18.62;70.64;99663.65;105601;1259;69876;-71
2023/06/14 05:27:01;;;;;;;8.20;5.80;;;;;;;18.69;70.48;99661.64;105250;1257;71317;-73
2023/06/14 05:29:27;;;;;;;8.50;4.90;;;;;;;18.75;70.28;99658.84;105280;1256;60435;-73
2023/06/14 05:31:57;;;;;;;11.90;5.50;;;;;;;18.79;69.94;99663.20;105374;1255;60145;-72
2023/06/14 05:34:24;;;;;;;11.30;6.20;;;;;;;18.80;69.31;99666.80;105627;1260;73859;-73
2023/06/14 05:36:51;;;;;;;7.10;4.90;;;;;;;18.80;68.91;99663.45;105415;1256;70359;-72
2023/06/14 05:39:18;;;;;;;8.60;5.60;;;;;;;18.81;68.59;99660.20;105429;1256;71610;-72
2023/06/14 05:41:45;;;;;;;6.10;5.40;;;;;;;18.83;68.48;99662.27;105433;1255;60388;-73
2023/06/14 05:44:12;;;;;;;8.30;5.30;;;;;;;18.85;68.45;99656.77;105455;1256;60731;-70
2023/06/14 05:46:39;;;;;;;9.00;5.70;;;;;;;18.88;68.30;99660.38;105134;1256;73026;-70
2023/06/14 05:49:06;;;;;;;6.60;5.40;;;;;;;18.91;68.07;99662.88;105732;1256;70291;-72
2023/06/14 05:51:34;;;;;;;6.70;5.00;;;;;;;18.95;67.68;99667.10;105264;1257;72388;-72
2023/06/14 05:54:01;;;;;;;8.20;6.00;;;;;;;18.95;67.58;99669.48;106916;1256;60452;-73
2023/06/14 05:56:28;;;;;;;7.60;5.30;;;;;;;18.99;67.36;99673.21;105672;1253;60356;-73
2023/06/14 05:58:55;;;;;;;8.30;5.20;;;;;;;19.05;67.13;99672.62;105700;1260;73193;-73
2023/06/14 06:01:22;;;;;;;6.00;5.00;;;;;;;19.11;67.04;99672.79;105665;1253;70468;-73
2023/06/14 06:03:49;;;;;;;6.80;4.50;;;;;;;19.17;66.93;99674.21;105927;1255;72559;-73
2023/06/14 06:06:17;;;;;;;8.60;5.30;;;;;;;19.22;66.78;99674.30;105684;1254;60934;-74
2023/06/14 06:08:44;;;;;;;8.40;4.90;;;;;;;19.30;66.67;99674.72;105694;1254;60347;-73
2023/06/14 06:11:11;;;;;;;10.30;5.30;;;;;;;19.35;66.35;99677.83;105379;1260;71750;-72
2023/06/14 06:13:39;;;;;;;8.70;4.90;;;;;;;19.39;66.16;99675.96;105770;1254;70771;-71
2023/06/14 06:16:06;;;;;;;6.10;5.00;;;;;;;19.45;66.02;99677.61;105713;1254;73087;-74
2023/06/14 06:18:33;;;;;;;9.50;5.40;;;;;;;19.50;65.72;99675.64;106030;1253;60270;-76
2023/06/14 06:21:01;;;;;;;7.30;5.50;;;;;;;19.53;65.72;99675.36;106307;1252;60297;-77
2023/06/14 06:23:28;;;;;;;6.40;5.30;;;;;;;19.56;65.77;99670.23;106475;1255;72073;-78
2023/06/14 06:25:54;;;;;;;7.00;6.20;;;;;;;19.62;65.68;99667.78;106134;1254;69199;-77
2023/06/14 06:28:21;;;;;;;6.70;6.00;;;;;;;19.66;65.77;99667.25;105865;1259;72643;-78
2023/06/14 06:30:50;;;;;;;10.40;5.70;;;;;;;19.67;65.90;99673.20;106116;1254;60071;-77
2023/06/14 06:33:18;;;;;;;5.60;4.90;;;;;;;19.69;66.18;99675.39;106064;1253;60351;-76
2023/06/14 06:35:45;;;;;;;9.00;5.40;;;;;;;19.70;66.36;99666.63;105923;1253;72818;-77
2023/06/14 06:38:11;;;;;;;8.60;5.00;;;;;;;19.73;66.39;99666.81;105842;1253;70265;-75
2023/06/14 06:40:38;;;;;;;7.20;4.90;;;;;;;19.78;66.24;99666.24;105962;1253;59708;-78
2023/06/14 06:43:05;;;;;;;8.00;4.30;;;;;;;19.80;65.82;99668.24;105816;1254;60265;-78
2023/06/14 06:45:38;;;;;;;9.20;4.60;;;;;;;19.82;65.46;99664.18;105852;1253;60576;-77
2023/06/14 06:48:10;;;;;;;6.20;4.10;;;;;;;19.85;64.88;99664.52;106133;1253;71731;-78
2023/06/14 06:50:37;;;;;;;5.30;4.20;;;;;;;19.87;64.33;99669.80;105955;1253;70199;-78
2023/06/14 06:53:05;;;;;;;5.10;4.20;;;;;;;19.90;63.90;99664.91;105699;1254;72544;-77
2023/06/14 06:55:32;;;;;;;5.70;3.80;;;;;;;19.93;63.17;99663.06;105877;1260;60266;-78
2023/06/14 06:58:00;;;;;;;5.70;4.00;;;;;;;19.97;62.79;99658.36;105921;1254;60327;-78
2023/06/14 07:00:27;;;;;;;6.60;3.80;;;;;;;20.01;62.64;99654.64;106257;1253;71876;-78
2023/06/14 07:02:55;;;;;;;5.70;4.00;;;;;;;20.08;62.33;99654.45;105968;1253;70494;-79
2023/06/14 07:05:25;;;;;;;5.60;3.80;;;;;;;20.12;62.03;99659.64;106011;1259;71388;-79
2023/06/14 07:08:05;;;;;;;8.70;3.80;;;;;;;20.16;61.65;99654.48;105868;1254;59661;-78
2023/06/14 07:10:33;;;;;;;5.30;3.10;;;;;;;20.17;61.65;99654.63;106113;1256;60331;-76
2023/06/14 07:12:59;;;;;;;6.50;2.80;;;;;;;20.19;61.38;99658.63;106483;1259;72880;-78
2023/06/14 07:15:26;;;;;;;6.90;3.80;;;;;;;20.20;61.57;99657.73;106239;1258;69238;-78
2023/06/14 07:17:53;;;;;;;10.40;6.40;;;;;;;20.20;61.80;99656.86;105815;1254;73190;-78
2023/06/14 07:20:22;;;;;;;5.20;3.90;;;;;;;20.19;62.05;99660.02;106023;1253;60411;-78
2023/06/14 07:22:49;;;;;;;8.10;3.90;;;;;;;20.18;62.34;99663.87;105789;1255;59731;-79
2023/06/14 07:25:19;;;;;;;6.30;3.60;;;;;;;20.16;62.36;99660.02;105782;1253;72171;-78
2023/06/14 07:27:47;;;;;;;6.00;3.70;;;;;;;20.13;62.34;99659.55;105959;1253;70117;-78
2023/06/14 07:30:14;;;;;;;4.40;4.00;;;;;;;20.10;62.62;99660.86;105802;1256;72762;-76
2023/06/14 07:32:42;;;;;;;5.00;3.90;;;;;;;20.07;63.07;99656.71;105884;1254;60321;-79
2023/06/14 07:35:11;;;;;;;8.70;4.50;;;;;;;20.09;63.35;99659.72;105793;1261;59602;-80
2023/06/14 07:37:38;;;;;;;5.60;4.00;;;;;;;20.12;63.51;99660.48;105973;1259;73022;-78
2023/06/14 07:40:06;;;;;;;4.40;4.00;;;;;;;20.15;63.94;99662.40;106121;1253;70278;-78
2023/06/14 07:42:35;;;;;;;7.20;4.30;;;;;;;20.18;64.04;99662.84;106163;1254;72536;-76
2023/06/14 07:45:03;;;;;;;6.00;3.90;;;;;;;20.24;63.81;99666.72;106076;1256;59671;-76
2023/06/14 07:47:30;;;;;;;7.30;4.20;;;;;;;20.30;63.75;99664.42;105982;1257;60306;-78
2023/06/14 07:49:57;;;;;;;5.60;3.80;;;;;;;20.36;63.83;99665.23;106061;1256;72915;-78
2023/06/14 07:52:24;;;;;;;4.80;4.40;;;;;;;20.43;63.80;99666.34;106040;1253;70318;-77
2023/06/14 07:54:51;;;;;;;8.10;4.40;;;;;;;20.50;63.99;99667.75;106151;1253;71653;-78
2023/06/14 07:57:20;;;;;;;6.10;4.70;;;;;;;20.60;63.88;99667.67;106148;1253;60428;-78
2023/06/14 07:59:46;;;;;;;4.80;4.20;;;;;;;20.71;63.73;99664.38;106139;1256;59767;-78
2023/06/14 08:02:14;;;;;;;6.60;4.40;;;;;;;20.84;63.34;99659.89;105990;1253;74272;-76
2023/06/14 08:04:41;;;;;;;7.10;4.30;;;;;;;20.96;62.98;99663.48;105854;1253;70270;-78
2023/06/14 08:07:08;;;;;;;7.00;4.10;;;;;;;21.04;62.77;99661.44;106852;1252;72735;-79
2023/06/14 08:09:37;;;;;;;7.80;3.90;;;;;;;21.14;62.46;99663.95;106593;1253;60482;-78
2023/06/14 08:12:07;;;;;;;6.40;3.60;;;;;;;21.24;62.19;99662.82;105812;1254;60633;-75
2023/06/14 08:14:35;;;;;;;8.30;4.40;;;;;;;21.36;61.63;99666.98;106074;1253;73792;-77
2023/06/14 08:17:02;;;;;;;6.40;4.40;;;;;;;21.47;61.03;99668.73;105925;1253;70419;-76
2023/06/14 08:19:28;;;;;;;7.00;3.80;;;;;;;21.56;60.90;99665.50;105873;1253;71568;-77
2023/06/14 08:21:56;;;;;;;5.70;4.20;;;;;;;21.64;60.78;99663.85;105877;1253;60412;-77
2023/06/14 08:24:24;;;;;;;5.00;4.20;;;;;;;21.71;60.60;99659.17;106049;1253;60454;-75
2023/06/14 08:26:51;;;;;;;5.50;4.10;;;;;;;21.79;60.64;99656.45;105783;1254;73749;-75
2023/06/14 08:29:18;;;;;;;9.00;4.50;;;;;;;21.88;60.23;99652.82;105864;1258;70317;-76
2023/06/14 08:31:48;;;;;;;6.90;4.20;;;;;;;21.95;59.86;99653.80;105859;1253;72676;-77
2023/06/14 08:34:15;;;;;;;8.10;5.10;;;;;;;22.04;59.87;99656.53;105750;1253;60477;-75
2023/06/14 08:36:42;;;;;;;6.20;4.20;;;;;;;22.13;60.10;99652.14;105921;1253;60427;-78
2023/06/14 08:39:09;;;;;;;5.40;3.80;;;;;;;22.23;60.02;99651.92;105872;1257;73796;-78
2023/06/14 08:41:35;;;;;;;6.90;4.50;;;;;;;22.40;59.89;99652.57;105931;1253;70196;-77
2023/06/14 08:44:03;;;;;;;6.90;4.40;;;;;;;22.58;59.47;99653.81;105831;1260;71659;-76
2023/06/14 08:46:32;;;;;;;4.70;4.30;;;;;;;22.78;59.06;99650.63;105845;1254;60454;-76
2023/06/14 08:48:59;;;;;;;5.00;4.10;;;;;;;22.99;58.45;99652.67;106106;1253;60426;-74
2023/06/14 08:51:26;;;;;;;8.10;4.50;;;;;;;23.17;57.81;99653.84;106008;1253;73897;-77
2023/06/14 08:53:57;;;;;;;8.50;4.10;;;;;;;23.33;57.44;99650.13;105817;1254;70569;-74
2023/06/14 08:56:30;;;;;;;6.60;4.20;;;;;;;23.48;57.23;99650.43;106021;1256;71138;-77
2023/06/14 08:59:00;;;;;;;4.50;4.00;;;;;;;23.66;57.06;99643.28;106048;1252;60463;-74
2023/06/14 09:01:27;;;;;;;5.40;4.00;;;;;;;23.91;57.00;99644.41;106841;1260;60450;-77
2023/06/14 09:03:57;;;;;;;6.60;4.60;;;;;;;24.17;56.61;99644.72;106852;1253;73915;-76
2023/06/14 09:06:24;;;;;;;5.40;3.90;;;;;;;24.45;55.83;99643.73;106412;1256;70462;-75
2023/06/14 09:08:51;;;;;;;5.50;3.90;;;;;;;24.72;55.39;99639.61;106040;1253;71852;-75
2023/06/14 09:11:18;;;;;;;7.40;4.20;;;;;;;25.02;55.05;99639.41;105719;1256;60550;-77
2023/06/14 09:13:46;;;;;;;6.40;4.20;;;;;;;25.35;53.88;99639.21;105958;1253;61747;-75
2023/06/14 09:16:13;;;;;;;7.80;4.80;;;;;;;25.60;53.21;99643.29;105879;1258;73907;-76
2023/06/14 09:18:44;;;;;;;6.70;4.50;;;;;;;25.87;52.83;99642.29;105951;1253;70377;-77
2023/06/14 09:21:11;;;;;;;5.40;4.10;;;;;;;26.28;52.34;99643.86;106026;1256;72539;-76
2023/06/14 09:23:46;;;;;;;5.70;4.10;;;;;;;26.75;51.07;99640.23;106138;1253;60600;-79
2023/06/14 09:26:20;;;;;;;4.70;4.20;;;;;;;27.32;50.23;99627.45;106131;1259;60275;-77
2023/06/14 09:28:53;;;;;;;5.10;3.60;;;;;;;27.93;49.13;99620.16;106231;1253;74192;-76
2023/06/14 09:31:20;;;;;;;6.90;4.20;;;;;;;28.46;47.98;99616.73;106098;1253;69352;-77
2023/06/14 09:33:48;;;;;;;5.60;4.20;;;;;;;28.81;47.41;99618.30;105861;1256;73021;-77
2023/06/14 09:36:18;;;;;;;5.90;4.40;;;;;;;29.17;46.44;99619.91;106166;1256;60398;-75
2023/06/14 09:38:57;;;;;;;7.50;4.70;;;;;;;29.55;45.96;99618.41;105964;1254;60853;-75
2023/06/14 09:41:38;;;;;;;5.80;4.40;;;;;;;29.88;45.16;99618.23;106151;1256;73634;-78
2023/06/14 09:44:08;;;;;;;5.30;3.90;;;;;;;30.13;44.85;99617.20;106189;1253;70428;-76
2023/06/14 09:46:40;;;;;;;5.40;4.20;;;;;;;30.22;44.32;99614.67;106138;1252;71212;-76
2023/06/14 09:49:08;;;;;;;4.70;4.20;;;;;;;30.22;43.91;99617.76;106120;1252;60476;-73
2023/06/14 09:51:37;;;;;;;4.80;4.20;;;;;;;30.29;43.77;99619.55;106161;1259;60464;-74
2023/06/14 09:54:04;;;;;;;5.30;4.60;;;;;;;30.53;43.45;99616.48;105957;1258;73717;-75
2023/06/14 09:56:36;;;;;;;4.60;3.90;;;;;;;30.84;43.15;99618.33;106003;1258;70382;-75
2023/06/14 09:59:05;;;;;;;6.30;4.30;;;;;;;31.11;43.14;99615.52;105908;1253;71196;-74
2023/06/14 10:01:35;;;;;;;8.80;4.10;;;;;;;31.21;42.81;99619.59;106143;1252;60474;-73
2023/06/14 10:04:04;;;;;;;6.20;4.30;;;;;;;31.15;42.75;99616.14;105889;1251;60534;-75
2023/06/14 10:06:39;;;;;;;8.40;4.40;;;;;;;31.26;42.82;99610.46;106877;1253;74316;-76
2023/06/14 10:09:08;;;;;;;5.20;3.80;;;;;;;31.55;42.65;99609.05;106639;1253;68933;-73
2023/06/14 10:11:36;;;;;;;9.50;4.50;;;;;;;31.72;42.07;99611.13;106179;1252;72113;-77
2023/06/14 10:14:05;;;;;;;6.80;4.40;;;;;;;31.67;41.50;99613.73;106096;1254;61493;-75
2023/06/14 10:16:37;;;;;;;7.80;4.30;;;;;;;31.50;41.64;99615.77;106228;1254;60518;-75
2023/06/14 10:19:20;;;;;;;5.20;4.50;;;;;;;31.25;41.59;99615.34;106138;1253;73105;-73
2023/06/14 10:22:06;;;;;;;8.10;4.60;;;;;;;30.84;41.77;99616.74;106393;1253;69928;-75
2023/06/14 10:24:35;;;;;;;5.50;4.60;;;;;;;30.48;42.32;99616.75;106291;1259;71048;-76
2023/06/14 10:27:01;;;;;;;6.70;4.40;;;;;;;30.31;42.84;99614.52;106384;1256;60502;-71
2023/06/14 10:29:32;;;;;;;5.70;4.70;;;;;;;30.34;42.93;99610.42;106347;1253;60452;-70
2023/06/14 10:32:00;;;;;;;6.90;4.30;;;;;;;30.50;42.74;99610.30;106648;1259;74181;-71
2023/06/14 10:34:30;;;;;;;5.00;4.50;;;;;;;30.64;42.62;99607.71;107006;1253;70218;-73
2023/06/14 10:37:10;;;;;;;6.40;4.30;;;;;;;30.68;42.60;99603.85;106822;1255;71261;-73
2023/06/14 10:39:43;;;;;;;5.10;4.20;;;;;;;30.66;42.23;99606.96;106969;1253;60458;-71
2023/06/14 10:42:09;;;;;;;6.90;3.90;;;;;;;30.60;42.44;99605.77;106767;1253;60265;-69
2023/06/14 10:44:43;;;;;;;7.70;4.30;;;;;;;30.69;42.17;99609.48;106431;1257;75268;-71
2023/06/14 10:47:31;;;;;;;5.10;4.60;;;;;;;30.83;42.01;99601.95;106561;1256;68871;-69
2023/06/14 10:50:01;;;;;;;6.30;4.40;;;;;;;31.02;41.92;99603.82;106505;1253;73281;-70
2023/06/14 10:52:29;;;;;;;6.90;4.20;;;;;;;31.11;41.62;99602.65;106186;1253;60537;-71
2023/06/14 10:55:05;;;;;;;5.30;4.20;;;;;;;31.12;41.43;99603.43;106322;1258;62744;-73
2023/06/14 10:57:33;;;;;;;4.90;4.50;;;;;;;30.98;41.87;99602.33;106770;1251;74193;-70
2023/06/14 11:00:16;;;;;;;5.10;4.10;;;;;;;30.90;42.04;99602.14;106811;1255;69177;-71
2023/06/14 11:03:21;;;;;;;5.30;4.40;;;;;;;30.71;42.23;99599.83;106826;1253;71873;-69
2023/06/14 11:05:48;;;;;;;5.30;4.70;;;;;;;30.56;42.65;99604.36;106472;1253;60415;-72
2023/06/14 11:08:36;;;;;;;7.90;4.40;;;;;;;30.56;43.07;99602.59;106402;1253;60360;-71
2023/06/14 11:11:07;;;;;;;9.70;4.90;;;;;;;30.54;43.06;99602.44;106296;1255;73111;-69
2023/06/14 11:13:36;;;;;;;5.70;4.30;;;;;;;30.41;43.17;99602.90;107023;1253;69406;-70
2023/06/14 11:16:03;;;;;;;5.60;4.50;;;;;;;30.19;43.27;99598.30;106681;1259;72531;-71
2023/06/14 11:18:30;;;;;;;5.30;3.90;;;;;;;29.98;43.85;99598.83;106773;1260;60527;-72
2023/06/14 11:20:56;;;;;;;8.10;5.60;;;;;;;29.84;43.91;99598.98;106673;1257;60384;-71
2023/06/14 11:23:23;;;;;;;4.60;4.20;;;;;;;29.70;44.36;99593.05;107151;1253;73693;-70
2023/06/14 11:25:53;;;;;;;8.40;5.00;;;;;;;29.52;44.39;99596.89;107426;1256;69971;-71
2023/06/14 11:28:21;;;;;;;5.00;4.50;;;;;;;29.33;44.96;99597.02;106686;1253;72553;-69
2023/06/14 11:30:48;;;;;;;5.90;4.80;;;;;;;29.07;45.39;99599.83;106138;1253;60633;-68
2023/06/14 11:33:21;;;;;;;8.60;4.90;;;;;;;28.84;45.77;99597.10;106302;1254;60325;-69
2023/06/14 11:35:47;;;;;;;5.50;4.40;;;;;;;28.64;45.91;99599.75;106060;1256;73907;-70